createdAt,value
2023-03-06T00:01:03.665Z,65.40
2023-03-06T00:03:30.667Z,65.55
2023-03-06T00:05:58.762Z,66.03
2023-03-06T00:08:28.434Z,65.68
2023-03-06T00:10:56.553Z,66.10
2023-03-06T00:13:23.944Z,65.59
2023-03-06T00:15:50.931Z,65.66
2023-03-06T00:18:18.110Z,65.29
2023-03-06T00:20:45.365Z,65.48
2023-03-06T00:23:12.654Z,65.76
2023-03-06T00:25:44.344Z,65.07
2023-03-06T00:28:14.649Z,65.42
2023-03-06T00:30:42.191Z,65.86
2023-03-06T00:33:09.261Z,65.69
2023-03-06T00:35:39.640Z,65.78
2023-03-06T00:38:06.936Z,65.13
2023-03-06T00:40:34.134Z,66.27
2023-03-06T00:43:01.068Z,65.67
2023-03-06T00:45:28.056Z,66.07
2023-03-06T00:47:55.033Z,66.46
2023-03-06T00:50:21.968Z,65.88
2023-03-06T00:52:49.141Z,66.26
2023-03-06T00:55:16.363Z,65.48
2023-03-06T00:57:43.277Z,65.90
2023-03-06T01:00:12.302Z,65.61
2023-03-06T01:02:39.467Z,66.73
2023-03-06T01:05:08.230Z,65.86
2023-03-06T01:07:36.934Z,65.97
2023-03-06T01:10:07.892Z,66.64
2023-03-06T01:12:35.210Z,66.68
2023-03-06T01:15:02.244Z,66.24
2023-03-06T01:17:29.235Z,66.66
2023-03-06T01:19:57.009Z,66.90
2023-03-06T01:22:23.971Z,67.54
2023-03-06T01:24:50.903Z,67.12
2023-03-06T01:27:17.843Z,66.25
2023-03-06T01:29:44.794Z,66.92
2023-03-06T01:32:11.814Z,66.79
2023-03-06T01:34:38.800Z,67.06
2023-03-06T01:37:05.778Z,66.74
2023-03-06T01:39:32.687Z,66.52
2023-03-06T01:41:59.623Z,66.19
2023-03-06T01:44:26.560Z,66.91
2023-03-06T01:46:53.490Z,67.23
2023-03-06T01:49:29.942Z,67.77
2023-03-06T01:52:18.588Z,67.28
2023-03-06T01:54:53.068Z,66.67
2023-03-06T01:57:26.096Z,66.05
2023-03-06T02:00:03.521Z,67.10
2023-03-06T02:02:47.282Z,66.56
2023-03-06T02:05:14.302Z,66.27
2023-03-06T02:07:42.816Z,66.30
2023-03-06T02:10:13.961Z,66.45
2023-03-06T02:12:43.650Z,65.75
2023-03-06T02:15:14.459Z,66.91
2023-03-06T02:17:45.060Z,65.75
2023-03-06T02:20:26.659Z,65.78
2023-03-06T02:23:08.588Z,66.29
2023-03-06T02:25:49.244Z,65.66
2023-03-06T02:28:21.179Z,66.61
2023-03-06T02:30:51.743Z,66.18
2023-03-06T02:33:23.233Z,66.52
2023-03-06T02:35:57.419Z,66.35
2023-03-06T02:38:31.790Z,65.64
2023-03-06T02:41:01.737Z,66.15
2023-03-06T02:43:35.338Z,66.44
2023-03-06T02:46:02.959Z,65.90
2023-03-06T02:48:29.971Z,65.97
2023-03-06T02:50:56.895Z,66.08
2023-03-06T02:53:24.279Z,66.29
2023-03-06T02:55:52.036Z,67.23
2023-03-06T02:58:20.610Z,66.61
2023-03-06T03:00:49.484Z,66.95
2023-03-06T03:03:17.299Z,66.97
2023-03-06T03:05:44.451Z,67.60
2023-03-06T03:08:19.552Z,67.14
2023-03-06T03:10:46.885Z,67.66
2023-03-06T03:13:14.576Z,67.44
2023-03-06T03:15:42.490Z,67.79
2023-03-06T03:18:11.729Z,67.00
2023-03-06T03:20:42.987Z,67.54
2023-03-06T03:23:10.020Z,67.98
2023-03-06T03:25:36.962Z,67.71
2023-03-06T03:28:04.591Z,66.78
2023-03-06T03:30:31.646Z,67.72
2023-03-06T03:32:58.668Z,67.08
2023-03-06T03:35:26.517Z,66.94
2023-03-06T03:37:55.160Z,68.39
2023-03-06T03:40:22.251Z,68.04
2023-03-06T03:42:50.893Z,68.54
2023-03-06T03:45:18.054Z,67.30
2023-03-06T03:47:45.544Z,67.23
2023-03-06T03:50:13.540Z,67.63
2023-03-06T03:52:41.015Z,67.48
2023-03-06T03:55:08.660Z,67.96
2023-03-06T03:57:39.107Z,67.08
2023-03-06T04:00:08.120Z,66.83
2023-03-06T04:02:40.950Z,67.99
2023-03-06T04:05:17.109Z,68.10
2023-03-06T04:07:44.411Z,68.65
2023-03-06T04:10:13.130Z,69.08
2023-03-06T04:12:40.608Z,68.43
2023-03-06T04:15:09.518Z,67.90
2023-03-06T04:17:36.656Z,68.85
2023-03-06T04:20:07.473Z,67.86
2023-03-06T04:22:34.782Z,67.30
2023-03-06T04:25:01.825Z,68.86
2023-03-06T04:27:28.859Z,67.95
2023-03-06T04:29:56.360Z,67.59
2023-03-06T04:32:24.196Z,67.91
2023-03-06T04:34:51.656Z,68.81
2023-03-06T04:37:25.318Z,68.60
2023-03-06T04:39:53.282Z,68.26
2023-03-06T04:42:20.194Z,67.95
2023-03-06T04:44:47.143Z,69.36
2023-03-06T04:47:14.283Z,68.79
2023-03-06T04:49:41.251Z,68.14
2023-03-06T04:52:08.800Z,67.86
2023-03-06T04:54:35.755Z,67.96
2023-03-06T04:57:02.858Z,67.71
2023-03-06T04:59:29.780Z,67.87
2023-03-06T05:01:56.840Z,67.53
2023-03-06T05:04:23.904Z,67.49
2023-03-06T05:06:50.895Z,67.47
2023-03-06T05:09:17.806Z,67.68
2023-03-06T05:11:44.762Z,67.41
2023-03-06T05:14:11.705Z,67.79
2023-03-06T05:16:38.664Z,68.01
2023-03-06T05:19:05.789Z,67.48
2023-03-06T05:21:32.724Z,67.05
2023-03-06T05:23:59.711Z,67.08
2023-03-06T05:26:26.641Z,66.90
2023-03-06T05:28:55.196Z,66.59
2023-03-06T05:31:22.144Z,67.62
2023-03-06T05:33:49.097Z,67.13
2023-03-06T05:36:16.012Z,66.96
2023-03-06T05:38:42.955Z,66.89
2023-03-06T05:41:13.043Z,67.31
2023-03-06T05:43:40.085Z,67.08
2023-03-06T05:46:07.512Z,67.04
2023-03-06T05:48:36.136Z,67.54
2023-03-06T05:51:03.997Z,66.76
2023-03-06T05:53:31.909Z,66.97
2023-03-06T05:56:03.064Z,66.56
2023-03-06T05:58:31.165Z,67.40
2023-03-06T06:00:58.531Z,67.14
2023-03-06T06:03:25.787Z,66.92
2023-03-06T06:05:53.094Z,66.90
2023-03-06T06:08:21.066Z,66.69
2023-03-06T06:10:48.042Z,67.12
2023-03-06T06:13:15.056Z,66.80
2023-03-06T06:15:42.009Z,66.77
2023-03-06T06:18:09.008Z,66.62
2023-03-06T06:20:37.703Z,66.79
2023-03-06T06:23:05.055Z,66.72
2023-03-06T06:25:33.261Z,67.31
2023-03-06T06:28:00.221Z,66.63
2023-03-06T06:30:27.138Z,66.64
2023-03-06T06:32:54.109Z,67.91
2023-03-06T06:35:21.204Z,66.60
2023-03-06T06:37:49.025Z,66.79
2023-03-06T06:40:16.354Z,66.85
2023-03-06T06:42:43.948Z,66.58
2023-03-06T06:45:12.015Z,66.63
2023-03-06T06:47:43.332Z,66.63
2023-03-06T06:50:14.028Z,66.48
2023-03-06T06:52:41.387Z,66.50
2023-03-06T06:55:08.969Z,66.55
2023-03-06T06:57:35.907Z,66.43
2023-03-06T07:00:04.844Z,66.54
2023-03-06T07:02:32.249Z,66.73
2023-03-06T07:05:05.003Z,66.49
2023-03-06T07:07:35.763Z,66.62
2023-03-06T07:10:07.981Z,66.77
2023-03-06T07:12:35.106Z,66.64
2023-03-06T07:15:02.864Z,66.89
2023-03-06T07:17:30.055Z,66.78
2023-03-06T07:19:57.070Z,66.77
2023-03-06T07:22:24.244Z,67.06
2023-03-06T07:24:51.190Z,67.04
2023-03-06T07:27:18.180Z,66.98
2023-03-06T07:29:45.237Z,67.00
2023-03-06T07:32:12.618Z,67.25
2023-03-06T07:34:39.651Z,67.21
2023-03-06T07:37:06.638Z,66.91
2023-03-06T07:39:33.546Z,67.04
2023-03-06T07:42:00.551Z,67.02
2023-03-06T07:44:28.012Z,66.92
2023-03-06T07:46:55.022Z,67.13
2023-03-06T07:49:21.955Z,67.25
2023-03-06T07:51:48.930Z,67.17
2023-03-06T07:54:15.846Z,67.20
2023-03-06T07:56:42.906Z,67.20
2023-03-06T07:59:11.610Z,67.46
2023-03-06T08:01:42.176Z,67.25
2023-03-06T08:04:09.275Z,67.21
2023-03-06T08:06:36.435Z,67.42
2023-03-06T08:09:03.887Z,67.59
2023-03-06T08:11:31.965Z,67.71
2023-03-06T08:13:59.637Z,67.60
2023-03-06T08:16:30.050Z,67.54
2023-03-06T08:18:57.736Z,67.68
2023-03-06T08:21:27.680Z,67.69
2023-03-06T08:23:55.042Z,67.68
2023-03-06T08:26:26.028Z,67.32
2023-03-06T08:28:53.927Z,67.09
2023-03-06T08:31:35.721Z,67.34
2023-03-06T08:34:07.921Z,67.57
2023-03-06T08:36:35.111Z,67.78
2023-03-06T08:39:03.081Z,67.76
2023-03-06T08:41:30.724Z,68.02
2023-03-06T08:43:57.805Z,68.20
2023-03-06T08:46:28.706Z,67.94
2023-03-06T08:48:55.644Z,68.72
2023-03-06T08:51:23.740Z,68.39
2023-03-06T08:53:51.734Z,68.36
2023-03-06T08:56:31.867Z,68.71
2023-03-06T08:59:01.754Z,69.28
2023-03-06T09:01:33.044Z,69.05
2023-03-06T09:04:03.482Z,69.21
2023-03-06T09:06:34.916Z,69.29
2023-03-06T09:09:02.564Z,69.30
2023-03-06T09:11:29.895Z,68.98
2023-03-06T09:13:57.332Z,69.54
2023-03-06T09:16:24.975Z,69.75
2023-03-06T09:18:52.957Z,69.44
2023-03-06T09:21:22.205Z,69.64
2023-03-06T09:23:49.349Z,69.07
2023-03-06T09:26:16.517Z,68.93
2023-03-06T09:28:43.564Z,69.12
2023-03-06T09:31:13.941Z,69.31
2023-03-06T09:33:41.375Z,69.09
2023-03-06T09:36:13.592Z,68.87
2023-03-06T09:38:40.859Z,68.79
2023-03-06T09:41:14.235Z,68.80
2023-03-06T09:43:48.273Z,68.81
2023-03-06T09:46:45.890Z,68.59
2023-03-06T09:49:30.567Z,68.60
2023-03-06T09:52:28.786Z,68.94
2023-03-06T09:55:11.277Z,68.67
2023-03-06T09:58:25.231Z,68.57
2023-03-06T10:01:14.047Z,68.52
2023-03-06T10:04:37.127Z,68.37
2023-03-06T10:07:40.874Z,68.65
2023-03-06T10:10:20.588Z,68.82
2023-03-06T10:13:01.923Z,68.78
2023-03-06T10:15:39.298Z,68.77
2023-03-06T10:18:06.285Z,68.94
2023-03-06T10:21:21.126Z,68.52
2023-03-06T10:24:20.402Z,69.12
2023-03-06T10:27:00.136Z,69.26
2023-03-06T10:30:03.664Z,69.15
2023-03-06T10:33:21.207Z,69.21
2023-03-06T10:35:53.207Z,69.27
2023-03-06T10:38:26.563Z,69.43
2023-03-06T10:41:11.695Z,69.24
2023-03-06T10:43:44.953Z,69.41
2023-03-06T10:46:25.823Z,69.53
2023-03-06T10:49:03.736Z,69.75
2023-03-06T10:51:31.442Z,69.38
2023-03-06T10:54:11.791Z,69.28
2023-03-06T10:56:42.482Z,69.40
2023-03-06T10:59:27.220Z,69.29
2023-03-06T11:02:29.232Z,69.42
2023-03-06T11:04:59.243Z,69.49
2023-03-06T11:07:32.932Z,69.51
2023-03-06T11:10:19.838Z,69.44
2023-03-06T11:13:10.367Z,69.38
2023-03-06T11:15:37.292Z,69.21
2023-03-06T11:18:37.045Z,69.41
2023-03-06T11:21:24.159Z,69.49
2023-03-06T11:23:52.025Z,69.12
2023-03-06T11:26:44.637Z,69.09
2023-03-06T11:29:43.225Z,69.03
2023-03-06T11:32:28.882Z,69.02
2023-03-06T11:35:11.201Z,69.33
2023-03-06T11:37:58.237Z,69.28
2023-03-06T11:40:31.992Z,69.42
2023-03-06T11:43:48.617Z,68.96
2023-03-06T11:46:37.512Z,69.40
2023-03-06T11:49:30.759Z,69.58
2023-03-06T11:52:07.020Z,69.05
2023-03-06T11:54:34.225Z,69.23
2023-03-06T11:57:07.930Z,68.78
2023-03-06T11:59:50.685Z,68.97
2023-03-06T12:02:35.842Z,68.71
2023-03-06T12:05:36.385Z,69.13
2023-03-06T12:08:31.387Z,68.79
2023-03-06T12:11:11.988Z,68.74
2023-03-06T12:14:10.740Z,68.66
2023-03-06T12:17:06.787Z,68.70
2023-03-06T12:20:07.081Z,68.41
2023-03-06T12:23:22.759Z,68.38
2023-03-06T12:26:17.569Z,68.12
2023-03-06T12:29:07.187Z,68.48
2023-03-06T12:32:06.708Z,68.18
2023-03-06T12:35:16.393Z,68.29
2023-03-06T12:38:07.837Z,68.42
2023-03-06T12:40:59.035Z,68.59
2023-03-06T12:43:54.864Z,68.42
2023-03-06T12:46:25.326Z,68.71
2023-03-06T12:49:31.446Z,68.35
2023-03-06T12:52:00.907Z,68.87
2023-03-06T12:54:31.192Z,68.78
2023-03-06T12:57:00.869Z,69.00
2023-03-06T12:59:49.036Z,68.79
2023-03-06T13:02:43.933Z,68.74
2023-03-06T13:05:33.804Z,68.86
2023-03-06T13:08:15.738Z,69.02
2023-03-06T13:10:59.634Z,68.90
2023-03-06T13:13:41.337Z,69.02
2023-03-06T13:16:18.334Z,69.06
2023-03-06T13:19:04.022Z,69.11
2023-03-06T13:21:46.044Z,69.29
2023-03-06T13:24:31.569Z,69.46
2023-03-06T13:27:02.196Z,69.29
2023-03-06T13:29:38.368Z,69.21
2023-03-06T13:32:17.677Z,69.36
2023-03-06T13:34:49.973Z,69.35
2023-03-06T13:37:20.068Z,69.39
2023-03-06T13:39:55.483Z,69.16
2023-03-06T13:42:55.987Z,69.22
2023-03-06T13:45:43.693Z,69.37
2023-03-06T13:48:44.589Z,69.24
2023-03-06T13:51:25.668Z,69.37
2023-03-06T13:54:38.068Z,69.71
2023-03-06T13:57:47.914Z,69.51
2023-03-06T14:01:21.830Z,69.54
2023-03-06T14:04:38.031Z,69.32
2023-03-06T14:07:25.028Z,69.37
2023-03-06T14:10:22.414Z,69.53
2023-03-06T14:12:49.213Z,69.95
2023-03-06T14:15:30.740Z,69.83
2023-03-06T14:18:03.754Z,69.81
2023-03-06T14:21:05.609Z,69.51
2023-03-06T14:23:42.329Z,69.51
2023-03-06T14:26:22.826Z,69.23
2023-03-06T14:28:52.695Z,69.40
2023-03-06T14:31:23.571Z,69.41
2023-03-06T14:33:56.450Z,69.35
2023-03-06T14:36:41.739Z,69.69
2023-03-06T14:39:15.223Z,69.26
2023-03-06T14:41:42.137Z,69.18
2023-03-06T14:44:26.389Z,69.05
2023-03-06T14:46:56.620Z,69.28
2023-03-06T14:49:26.344Z,69.16
2023-03-06T14:51:57.374Z,69.15
2023-03-06T14:54:36.721Z,69.25
2023-03-06T14:57:12.776Z,68.91
2023-03-06T14:59:58.457Z,69.26
2023-03-06T15:02:32.699Z,69.14
2023-03-06T15:05:21.997Z,69.19
2023-03-06T15:07:50.695Z,69.79
2023-03-06T15:10:29.415Z,69.26
2023-03-06T15:13:06.923Z,69.46
2023-03-06T15:15:33.862Z,69.51
2023-03-06T15:18:00.953Z,69.59
2023-03-06T15:20:47.744Z,69.58
2023-03-06T15:23:26.289Z,69.67
2023-03-06T15:25:59.230Z,69.99
2023-03-06T15:28:37.696Z,69.29
2023-03-06T15:31:18.148Z,69.42
2023-03-06T15:34:13.074Z,70.14
2023-03-06T15:36:55.554Z,69.46
2023-03-06T15:39:40.483Z,69.68
2023-03-06T15:42:27.900Z,69.65
2023-03-06T15:45:00.063Z,69.74
2023-03-06T15:47:27.052Z,69.92
2023-03-06T15:49:54.059Z,69.98
2023-03-06T15:52:22.352Z,69.70
2023-03-06T15:54:49.570Z,69.83
2023-03-06T15:57:26.565Z,69.71
2023-03-06T15:59:54.116Z,70.13
2023-03-06T16:02:24.119Z,69.59
2023-03-06T16:04:51.703Z,69.85
2023-03-06T16:07:19.057Z,69.84
2023-03-06T16:09:46.450Z,69.82
2023-03-06T16:12:20.134Z,69.73
2023-03-06T16:14:48.820Z,69.65
2023-03-06T16:17:16.983Z,69.48
2023-03-06T16:19:44.328Z,69.48
2023-03-06T16:22:11.855Z,69.30
2023-03-06T16:24:38.888Z,69.54
2023-03-06T16:27:06.769Z,69.45
2023-03-06T16:29:33.833Z,69.52
2023-03-06T16:32:03.817Z,69.16
2023-03-06T16:34:30.779Z,69.20
2023-03-06T16:36:58.065Z,69.36
2023-03-06T16:39:25.072Z,69.19
2023-03-06T16:41:52.597Z,69.21
2023-03-06T16:44:20.688Z,68.92
2023-03-06T16:46:50.151Z,68.90
2023-03-06T16:49:23.642Z,68.94
2023-03-06T16:51:52.167Z,69.32
2023-03-06T16:54:20.062Z,69.13
2023-03-06T16:56:47.151Z,69.22
2023-03-06T16:59:14.156Z,69.04
2023-03-06T17:01:45.214Z,69.21
2023-03-06T17:04:12.503Z,69.02
2023-03-06T17:06:39.801Z,68.88
2023-03-06T17:09:07.012Z,69.14
2023-03-06T17:11:38.595Z,68.94
2023-03-06T17:14:06.799Z,68.86
2023-03-06T17:16:33.927Z,68.78
2023-03-06T17:19:02.295Z,68.90
2023-03-06T17:21:30.259Z,68.55
2023-03-06T17:23:57.337Z,68.70
2023-03-06T17:26:24.552Z,68.43
2023-03-06T17:28:51.546Z,68.58
2023-03-06T17:31:27.459Z,68.50
2023-03-06T17:34:00.160Z,68.46
2023-03-06T17:36:28.864Z,68.26
2023-03-06T17:38:58.877Z,68.25
2023-03-06T17:41:33.492Z,68.29
2023-03-06T17:44:01.776Z,68.26
2023-03-06T17:46:29.083Z,68.15
2023-03-06T17:48:56.906Z,68.15
2023-03-06T17:51:23.853Z,68.16
2023-03-06T17:53:52.116Z,67.91
2023-03-06T17:56:19.351Z,67.99
2023-03-06T17:58:46.270Z,67.97
2023-03-06T18:01:23.956Z,67.83
2023-03-06T18:03:51.311Z,67.86
2023-03-06T18:06:19.394Z,67.78
2023-03-06T18:08:47.124Z,67.78
2023-03-06T18:11:14.656Z,67.82
2023-03-06T18:13:44.382Z,67.67
2023-03-06T18:16:14.348Z,67.69
2023-03-06T18:18:41.692Z,67.83
2023-03-06T18:21:11.608Z,67.67
2023-03-06T18:23:39.842Z,67.84
2023-03-06T18:26:15.384Z,67.82
2023-03-06T18:28:45.831Z,67.55
2023-03-06T18:31:25.364Z,67.72
2023-03-06T18:34:01.607Z,67.57
2023-03-06T18:36:32.309Z,67.64
2023-03-06T18:39:02.006Z,67.58
2023-03-06T18:41:29.990Z,67.84
2023-03-06T18:43:59.773Z,67.82
2023-03-06T18:46:34.316Z,67.60
2023-03-06T18:49:01.524Z,67.67
2023-03-06T18:51:28.626Z,67.58
2023-03-06T18:54:04.411Z,67.32
2023-03-06T18:56:31.805Z,67.62
2023-03-06T18:59:06.743Z,67.44
2023-03-06T19:01:34.449Z,67.63
2023-03-06T19:04:03.465Z,67.42
2023-03-06T19:06:31.235Z,67.52
2023-03-06T19:08:58.730Z,67.57
2023-03-06T19:11:27.035Z,67.48
2023-03-06T19:13:54.442Z,67.50
2023-03-06T19:16:25.548Z,67.71
2023-03-06T19:18:57.255Z,67.19
2023-03-06T19:21:26.746Z,67.36
2023-03-06T19:23:54.222Z,67.55
2023-03-06T19:26:21.638Z,67.49
2023-03-06T19:28:49.654Z,67.30
2023-03-06T19:31:28.306Z,67.29
2023-03-06T19:33:56.798Z,67.56
2023-03-06T19:36:28.503Z,67.49
2023-03-06T19:39:01.217Z,67.46
2023-03-06T19:41:29.282Z,67.64
2023-03-06T19:43:59.141Z,67.29
2023-03-06T19:46:26.820Z,67.26
2023-03-06T19:48:59.817Z,67.46
2023-03-06T19:51:28.101Z,67.32
2023-03-06T19:53:57.334Z,67.39
2023-03-06T19:56:27.151Z,67.42
2023-03-06T19:58:54.605Z,67.44
2023-03-06T20:01:24.672Z,67.31
2023-03-06T20:03:58.944Z,67.44
2023-03-06T20:06:30.141Z,67.36
2023-03-06T20:08:57.157Z,67.29
2023-03-06T20:11:29.760Z,67.20
2023-03-06T20:13:59.424Z,67.46
2023-03-06T20:16:30.597Z,67.35
2023-03-06T20:18:59.867Z,67.19
2023-03-06T20:21:29.572Z,67.31
2023-03-06T20:23:58.068Z,67.27
2023-03-06T20:26:27.238Z,67.42
2023-03-06T20:28:54.754Z,67.41
2023-03-06T20:31:25.567Z,67.39
2023-03-06T20:33:54.925Z,67.31
2023-03-06T20:36:27.915Z,67.38
2023-03-06T20:38:56.610Z,67.39
2023-03-06T20:41:26.275Z,67.42
2023-03-06T20:43:54.384Z,67.31
2023-03-06T20:46:23.133Z,67.42
2023-03-06T20:48:52.350Z,67.26
2023-03-06T20:51:27.799Z,67.22
2023-03-06T20:53:56.038Z,67.39
2023-03-06T20:56:26.738Z,67.26
2023-03-06T20:58:54.035Z,67.30
2023-03-06T21:01:23.485Z,67.30
2023-03-06T21:03:51.004Z,67.33
2023-03-06T21:06:19.154Z,67.29
2023-03-06T21:08:46.796Z,67.35
2023-03-06T21:11:13.874Z,67.34
2023-03-06T21:13:40.978Z,67.38
2023-03-06T21:16:14.465Z,67.42
2023-03-06T21:18:42.360Z,67.42
2023-03-06T21:21:13.850Z,67.20
2023-03-06T21:23:41.138Z,67.42
2023-03-06T21:26:14.094Z,67.52
2023-03-06T21:28:41.386Z,67.69
2023-03-06T21:31:11.842Z,67.50
2023-03-06T21:33:39.612Z,67.71
2023-03-06T21:36:07.621Z,67.49
2023-03-06T21:38:34.929Z,67.64
2023-03-06T21:41:24.613Z,67.19
2023-03-06T21:44:04.066Z,67.44
2023-03-06T21:46:31.536Z,67.79
2023-03-06T21:48:58.751Z,67.82
2023-03-06T21:51:28.684Z,67.61
2023-03-06T21:53:55.779Z,67.45
2023-03-06T21:56:25.309Z,67.71
2023-03-06T21:58:52.939Z,67.41
2023-03-06T22:01:24.508Z,67.67
2023-03-06T22:03:51.800Z,67.64
2023-03-06T22:06:22.870Z,67.73
2023-03-06T22:08:49.821Z,67.21
2023-03-06T22:11:19.383Z,67.33
2023-03-06T22:13:48.122Z,67.56
2023-03-06T22:16:16.774Z,67.55
2023-03-06T22:18:49.385Z,67.68
2023-03-06T22:21:19.230Z,67.72
2023-03-06T22:23:51.174Z,67.78
2023-03-06T22:26:18.493Z,67.85
2023-03-06T22:28:45.638Z,67.96
2023-03-06T22:31:20.005Z,67.52
2023-03-06T22:33:51.250Z,67.62
2023-03-06T22:36:19.527Z,67.78
2023-03-06T22:38:47.384Z,68.03
2023-03-06T22:41:17.407Z,68.06
2023-03-06T22:43:44.414Z,67.84
2023-03-06T22:46:15.910Z,67.91
2023-03-06T22:48:43.762Z,67.90
2023-03-06T22:51:14.278Z,68.09
2023-03-06T22:53:41.845Z,67.99
2023-03-06T22:56:12.511Z,67.91
2023-03-06T22:58:40.285Z,67.91
2023-03-06T23:01:13.678Z,67.86
2023-03-06T23:03:44.293Z,67.80
2023-03-06T23:06:16.677Z,67.85
2023-03-06T23:08:48.328Z,67.71
2023-03-06T23:11:17.593Z,67.97
2023-03-06T23:14:05.308Z,67.93
2023-03-06T23:16:51.160Z,68.03
2023-03-06T23:19:36.439Z,67.90
2023-03-06T23:22:22.716Z,68.01
2023-03-06T23:25:09.144Z,68.24
2023-03-06T23:27:36.435Z,67.90
2023-03-06T23:30:05.499Z,68.16
2023-03-06T23:32:33.503Z,67.92
2023-03-06T23:35:00.930Z,68.06
2023-03-06T23:37:27.859Z,67.87
2023-03-06T23:39:55.182Z,68.19
2023-03-06T23:42:22.589Z,68.39
2023-03-06T23:44:49.632Z,68.13
2023-03-06T23:47:17.227Z,68.02
2023-03-06T23:49:44.201Z,68.20
2023-03-06T23:52:11.120Z,68.17
2023-03-06T23:54:38.186Z,68.24
2023-03-06T23:57:05.149Z,68.11
2023-03-06T23:59:32.091Z,68.23
